PIC6160 VVTS-VVCR
Flight info
| Callsign | PIC6160 |
|---|---|
| Flight time | 0h 38m |
| Altitude | 21000 |
| Route | BIXEX5U BIXEX W15 BANKE BANKE1A |
| Aircraft | A20N/M-SDE2E3FGHIRWXY/LB1 |
Departure
| Time | 2026-04-24 16:32 |
|---|---|
| Airport | Tan Son Nhat International Airport (VVTS) |
Arrival
| Time | 2026-04-24 17:10 |
|---|---|
| Airport | Cam Ranh International Airport / Cam Ranh Air Base (VVCR) |
| Time | Latitude | Longitude | Altitude | Speed | Heading |
|---|---|---|---|---|---|
| 2026-04-24 16:02 | 10.81249 | 106.65315 | 38 ft | 0 kts | 159° |
| 2026-04-24 16:20 | 10.81266 | 106.65308 | 39 ft | 2 kts | 156° |
| 2026-04-24 16:20 | 10.81295 | 106.65292 | 37 ft | 2 kts | 141° |
| 2026-04-24 16:20 | 10.81306 | 106.65280 | 38 ft | 2 kts | 116° |
| 2026-04-24 16:21 | 10.81307 | 106.65255 | 36 ft | 0 kts | 70° |
| 2026-04-24 16:23 | 10.81310 | 106.65263 | 36 ft | 2 kts | 69° |
| 2026-04-24 16:24 | 10.81337 | 106.65335 | 38 ft | 9 kts | 69° |
| 2026-04-24 16:24 | 10.81364 | 106.65404 | 37 ft | 12 kts | 69° |
| 2026-04-24 16:24 | 10.81396 | 106.65492 | 38 ft | 15 kts | 69° |
| 2026-04-24 16:24 | 10.81436 | 106.65597 | 38 ft | 17 kts | 69° |
| 2026-04-24 16:25 | 10.81482 | 106.65716 | 38 ft | 16 kts | 68° |
| 2026-04-24 16:25 | 10.81534 | 106.65792 | 39 ft | 15 kts | 19° |
| 2026-04-24 16:25 | 10.81646 | 106.65800 | 39 ft | 18 kts | 5° |
| 2026-04-24 16:26 | 10.81799 | 106.65905 | 39 ft | 11 kts | 68° |
| 2026-04-24 16:26 | 10.81830 | 106.65985 | 39 ft | 13 kts | 69° |
| 2026-04-24 16:26 | 10.81910 | 106.66197 | 37 ft | 18 kts | 69° |
| 2026-04-24 16:27 | 10.81958 | 106.66325 | 39 ft | 20 kts | 69° |
| 2026-04-24 16:27 | 10.82007 | 106.66456 | 39 ft | 17 kts | 69° |
| 2026-04-24 16:27 | 10.82051 | 106.66574 | 38 ft | 19 kts | 70° |
| 2026-04-24 16:27 | 10.82096 | 106.66692 | 38 ft | 15 kts | 69° |
| 2026-04-24 16:28 | 10.82137 | 106.66800 | 38 ft | 18 kts | 70° |
| 2026-04-24 16:28 | 10.82175 | 106.66899 | 38 ft | 12 kts | 69° |
| 2026-04-24 16:28 | 10.82267 | 106.67004 | 36 ft | 0 kts | 340° |
| 2026-04-24 16:29 | 10.82271 | 106.67002 | 37 ft | 0 kts | 339° |
| 2026-04-24 16:30 | 10.82319 | 106.66975 | 38 ft | 8 kts | 321° |
| 2026-04-24 16:30 | 10.82357 | 106.66934 | 38 ft | 8 kts | 285° |
| 2026-04-24 16:30 | 10.82353 | 106.66904 | 38 ft | 0 kts | 249° |
| 2026-04-24 16:31 | 10.82347 | 106.66889 | 38 ft | 5 kts | 249° |
| 2026-04-24 16:31 | 10.82261 | 106.66659 | 35 ft | 71 kts | 247° |
| 2026-04-24 16:31 | 10.82008 | 106.65995 | 40 ft | 128 kts | 248° |
| 2026-04-24 16:31 | 10.81636 | 106.65026 | 105 ft | 162 kts | 247° |
| 2026-04-24 16:32 | 10.81248 | 106.64007 | 680 ft | 156 kts | 246° |
| 2026-04-24 16:32 | 10.80851 | 106.62939 | 980 ft | 168 kts | 245° |
| 2026-04-24 16:32 | 10.80441 | 106.61801 | 1383 ft | 172 kts | 245° |
| 2026-04-24 16:32 | 10.80028 | 106.60651 | 1793 ft | 177 kts | 244° |
| 2026-04-24 16:33 | 10.79581 | 106.59398 | 1967 ft | 199 kts | 252° |
| 2026-04-24 16:33 | 10.79643 | 106.57917 | 2144 ft | 226 kts | 289° |
| 2026-04-24 16:33 | 10.80586 | 106.56562 | 2365 ft | 248 kts | 322° |
| 2026-04-24 16:33 | 10.82160 | 106.55825 | 2591 ft | 263 kts | 352° |
| 2026-04-24 16:34 | 10.84061 | 106.55784 | 2865 ft | 273 kts | 7° |
| 2026-04-24 16:34 | 10.85949 | 106.55989 | 3429 ft | 271 kts | 9° |
| 2026-04-24 16:34 | 10.87837 | 106.56239 | 3839 ft | 275 kts | 9° |
| 2026-04-24 16:34 | 10.89744 | 106.56500 | 4305 ft | 278 kts | 9° |
| 2026-04-24 16:35 | 10.91656 | 106.56763 | 4838 ft | 277 kts | 10° |
| 2026-04-24 16:35 | 10.93574 | 106.57024 | 5486 ft | 280 kts | 10° |
| 2026-04-24 16:35 | 10.95480 | 106.57291 | 6474 ft | 279 kts | 12° |
| 2026-04-24 16:35 | 10.97352 | 106.57815 | 7336 ft | 280 kts | 25° |
| 2026-04-24 16:36 | 10.99044 | 106.58809 | 8149 ft | 283 kts | 38° |
| 2026-04-24 16:36 | 11.00528 | 106.60134 | 8992 ft | 285 kts | 47° |
| 2026-04-24 16:36 | 11.01849 | 106.61655 | 9831 ft | 288 kts | 52° |
| 2026-04-24 16:36 | 11.03118 | 106.63286 | 10337 ft | 304 kts | 53° |
| 2026-04-24 16:37 | 11.04451 | 106.65059 | 10578 ft | 326 kts | 53° |
| 2026-04-24 16:37 | 11.05868 | 106.66944 | 10998 ft | 340 kts | 53° |
| 2026-04-24 16:37 | 11.06832 | 106.68218 | 11430 ft | 344 kts | 53° |
| 2026-04-24 16:37 | 11.08792 | 106.70790 | 12367 ft | 350 kts | 52° |
| 2026-04-24 16:38 | 11.10300 | 106.72759 | 13043 ft | 355 kts | 52° |
| 2026-04-24 16:38 | 11.11825 | 106.74748 | 13714 ft | 359 kts | 52° |
| 2026-04-24 16:38 | 11.13371 | 106.76763 | 14355 ft | 362 kts | 52° |
| 2026-04-24 16:38 | 11.14939 | 106.78806 | 14867 ft | 369 kts | 52° |
| 2026-04-24 16:39 | 11.16532 | 106.80882 | 15419 ft | 374 kts | 52° |
| 2026-04-24 16:39 | 11.18147 | 106.82988 | 15969 ft | 380 kts | 52° |
| 2026-04-24 16:39 | 11.19783 | 106.85121 | 16524 ft | 384 kts | 52° |
| 2026-04-24 16:39 | 11.21440 | 106.87284 | 17016 ft | 390 kts | 52° |
| 2026-04-24 16:40 | 11.23116 | 106.89471 | 17587 ft | 393 kts | 52° |
| 2026-04-24 16:40 | 11.24805 | 106.91676 | 18131 ft | 397 kts | 52° |
| 2026-04-24 16:40 | 11.26513 | 106.93907 | 18601 ft | 401 kts | 52° |
| 2026-04-24 16:40 | 11.28232 | 106.96154 | 19093 ft | 403 kts | 52° |
| 2026-04-24 16:41 | 11.29963 | 106.98416 | 19584 ft | 406 kts | 52° |
| 2026-04-24 16:41 | 11.31707 | 107.00697 | 20075 ft | 409 kts | 52° |
| 2026-04-24 16:41 | 11.33462 | 107.02995 | 20528 ft | 413 kts | 53° |
| 2026-04-24 16:41 | 11.35018 | 107.05458 | 20635 ft | 414 kts | 62° |
| 2026-04-24 16:42 | 11.36162 | 107.08160 | 20737 ft | 415 kts | 72° |
| 2026-04-24 16:42 | 11.36887 | 107.10963 | 20833 ft | 415 kts | 77° |
| 2026-04-24 16:42 | 11.37535 | 107.13847 | 20898 ft | 416 kts | 77° |
| 2026-04-24 16:42 | 11.38193 | 107.16719 | 20903 ft | 416 kts | 77° |
| 2026-04-24 16:43 | 11.38855 | 107.19591 | 20905 ft | 416 kts | 77° |
| 2026-04-24 16:43 | 11.39516 | 107.22460 | 20905 ft | 416 kts | 77° |
| 2026-04-24 16:43 | 11.40175 | 107.25325 | 20904 ft | 416 kts | 77° |
| 2026-04-24 16:43 | 11.40836 | 107.28200 | 20905 ft | 416 kts | 77° |
| 2026-04-24 16:44 | 11.41495 | 107.31068 | 20908 ft | 416 kts | 77° |
| 2026-04-24 16:44 | 11.42159 | 107.33960 | 20912 ft | 424 kts | 77° |
| 2026-04-24 16:44 | 11.42839 | 107.36928 | 20911 ft | 438 kts | 77° |
| 2026-04-24 16:44 | 11.43545 | 107.40005 | 20909 ft | 452 kts | 77° |
| 2026-04-24 16:45 | 11.44258 | 107.43117 | 20913 ft | 443 kts | 77° |
| 2026-04-24 16:45 | 11.44943 | 107.46103 | 20911 ft | 423 kts | 77° |
| 2026-04-24 16:45 | 11.45600 | 107.48972 | 20926 ft | 409 kts | 77° |
| 2026-04-24 16:45 | 11.46253 | 107.51824 | 20926 ft | 417 kts | 77° |
| 2026-04-24 16:46 | 11.46911 | 107.54702 | 20923 ft | 417 kts | 77° |
| 2026-04-24 16:46 | 11.47560 | 107.57545 | 20923 ft | 416 kts | 77° |
| 2026-04-24 16:46 | 11.48218 | 107.60421 | 20922 ft | 416 kts | 77° |
| 2026-04-24 16:46 | 11.48875 | 107.63301 | 20933 ft | 416 kts | 77° |
| 2026-04-24 16:47 | 11.49534 | 107.66188 | 20939 ft | 418 kts | 77° |
| 2026-04-24 16:47 | 11.50195 | 107.69085 | 20940 ft | 419 kts | 77° |
| 2026-04-24 16:47 | 11.50852 | 107.71968 | 20942 ft | 418 kts | 77° |
| 2026-04-24 16:47 | 11.51522 | 107.74905 | 20952 ft | 433 kts | 77° |
| 2026-04-24 16:48 | 11.52215 | 107.77948 | 20953 ft | 448 kts | 77° |
| 2026-04-24 16:48 | 11.52923 | 107.81059 | 20954 ft | 461 kts | 77° |
| 2026-04-24 16:48 | 11.53658 | 107.84288 | 20952 ft | 474 kts | 77° |
| 2026-04-24 16:48 | 11.54406 | 107.87578 | 20953 ft | 477 kts | 77° |
| 2026-04-24 16:49 | 11.55154 | 107.90870 | 20958 ft | 477 kts | 77° |
| 2026-04-24 16:49 | 11.55902 | 107.94164 | 20959 ft | 476 kts | 77° |
| 2026-04-24 16:49 | 11.56649 | 107.97453 | 20958 ft | 477 kts | 77° |
| 2026-04-24 16:49 | 11.57399 | 108.00755 | 20958 ft | 477 kts | 77° |
| 2026-04-24 16:50 | 11.57893 | 108.02934 | 20955 ft | 477 kts | 77° |
| 2026-04-24 16:50 | 11.58891 | 108.07338 | 20954 ft | 477 kts | 77° |
| 2026-04-24 16:50 | 11.59705 | 108.10623 | 20956 ft | 477 kts | 72° |
| 2026-04-24 16:50 | 11.60880 | 108.13774 | 20969 ft | 477 kts | 65° |
| 2026-04-24 16:51 | 11.62437 | 108.16755 | 20966 ft | 476 kts | 58° |
| 2026-04-24 16:51 | 11.64314 | 108.19539 | 20966 ft | 476 kts | 54° |
| 2026-04-24 16:51 | 11.66216 | 108.22258 | 20967 ft | 476 kts | 54° |
| 2026-04-24 16:51 | 11.68134 | 108.25015 | 20965 ft | 476 kts | 54° |
| 2026-04-24 16:52 | 11.70049 | 108.27775 | 20964 ft | 476 kts | 54° |
| 2026-04-24 16:52 | 11.71964 | 108.30534 | 20967 ft | 476 kts | 54° |
| 2026-04-24 16:52 | 11.73804 | 108.33345 | 20980 ft | 476 kts | 59° |
| 2026-04-24 16:52 | 11.75332 | 108.36342 | 20980 ft | 473 kts | 66° |
| 2026-04-24 16:53 | 11.76492 | 108.39405 | 20979 ft | 452 kts | 72° |
| 2026-04-24 16:53 | 11.77341 | 108.42418 | 20980 ft | 431 kts | 74° |
| 2026-04-24 16:53 | 11.78139 | 108.45290 | 20974 ft | 412 kts | 74° |
| 2026-04-24 16:53 | 11.78928 | 108.48105 | 20977 ft | 417 kts | 74° |
| 2026-04-24 16:54 | 11.79731 | 108.50971 | 20978 ft | 420 kts | 74° |
| 2026-04-24 16:54 | 11.80534 | 108.53836 | 20977 ft | 419 kts | 74° |
| 2026-04-24 16:54 | 11.81332 | 108.56691 | 20800 ft | 416 kts | 74° |
| 2026-04-24 16:54 | 11.82121 | 108.59518 | 20415 ft | 414 kts | 74° |
| 2026-04-24 16:55 | 11.82906 | 108.62331 | 19933 ft | 411 kts | 74° |
| 2026-04-24 16:55 | 11.83686 | 108.65129 | 19423 ft | 408 kts | 74° |
| 2026-04-24 16:55 | 11.84468 | 108.67902 | 18925 ft | 404 kts | 74° |
| 2026-04-24 16:55 | 11.85245 | 108.70643 | 18429 ft | 401 kts | 74° |
| 2026-04-24 16:56 | 11.86016 | 108.73364 | 17882 ft | 397 kts | 74° |
| 2026-04-24 16:56 | 11.86769 | 108.76027 | 17364 ft | 393 kts | 74° |
| 2026-04-24 16:56 | 11.87530 | 108.78720 | 16853 ft | 388 kts | 74° |
| 2026-04-24 16:56 | 11.88264 | 108.81322 | 16379 ft | 384 kts | 74° |
| 2026-04-24 16:57 | 11.89022 | 108.83922 | 15863 ft | 380 kts | 70° |
| 2026-04-24 16:57 | 11.90220 | 108.86300 | 15343 ft | 376 kts | 54° |
| 2026-04-24 16:57 | 11.91957 | 108.88268 | 14860 ft | 372 kts | 40° |
| 2026-04-24 16:57 | 11.93994 | 108.89878 | 14391 ft | 368 kts | 37° |
| 2026-04-24 16:58 | 11.96014 | 108.91455 | 13936 ft | 364 kts | 37° |
| 2026-04-24 16:58 | 11.98020 | 108.93025 | 13454 ft | 360 kts | 37° |
| 2026-04-24 16:58 | 11.99998 | 108.94576 | 12930 ft | 357 kts | 37° |
| 2026-04-24 16:58 | 12.01965 | 108.96120 | 12438 ft | 354 kts | 37° |
| 2026-04-24 16:59 | 12.03905 | 108.97644 | 11937 ft | 351 kts | 37° |
| 2026-04-24 16:59 | 12.05836 | 108.99160 | 11442 ft | 348 kts | 37° |
| 2026-04-24 16:59 | 12.09610 | 109.02125 | 11135 ft | 348 kts | 37° |
| 2026-04-24 17:00 | 12.11525 | 109.03631 | 11043 ft | 345 kts | 37° |
| 2026-04-24 17:00 | 12.15305 | 109.06601 | 10283 ft | 340 kts | 37° |
| 2026-04-24 17:00 | 12.16552 | 109.07580 | 9995 ft | 338 kts | 37° |
| 2026-04-24 17:01 | 12.20708 | 109.10858 | 9468 ft | 305 kts | 40° |
| 2026-04-24 17:01 | 12.22002 | 109.12503 | 9312 ft | 293 kts | 64° |
| 2026-04-24 17:02 | 12.23442 | 109.15588 | 8728 ft | 287 kts | 61° |
| 2026-04-24 17:02 | 12.24401 | 109.17366 | 8367 ft | 284 kts | 61° |
| 2026-04-24 17:02 | 12.25234 | 109.19190 | 8007 ft | 282 kts | 69° |
| 2026-04-24 17:02 | 12.25591 | 109.21141 | 7633 ft | 280 kts | 88° |
| 2026-04-24 17:03 | 12.25266 | 109.25072 | 6934 ft | 276 kts | 99° |
| 2026-04-24 17:03 | 12.24936 | 109.26998 | 6586 ft | 274 kts | 99° |
| 2026-04-24 17:03 | 12.24605 | 109.28909 | 6237 ft | 272 kts | 99° |
| 2026-04-24 17:04 | 12.24277 | 109.30805 | 5861 ft | 271 kts | 99° |
| 2026-04-24 17:04 | 12.23637 | 109.34584 | 5129 ft | 270 kts | 99° |
| 2026-04-24 17:04 | 12.23249 | 109.36464 | 4722 ft | 272 kts | 110° |
| 2026-04-24 17:05 | 12.22200 | 109.38061 | 4307 ft | 273 kts | 137° |
| 2026-04-24 17:05 | 12.20548 | 109.38992 | 3900 ft | 274 kts | 165° |
| 2026-04-24 17:05 | 12.16985 | 109.38203 | 3308 ft | 266 kts | 221° |
| 2026-04-24 17:06 | 12.15928 | 109.36670 | 3232 ft | 268 kts | 250° |
| 2026-04-24 17:06 | 12.15385 | 109.32940 | 3090 ft | 267 kts | 269° |
| 2026-04-24 17:06 | 12.15593 | 109.31054 | 3094 ft | 268 kts | 278° |
| 2026-04-24 17:07 | 12.15501 | 109.29206 | 2978 ft | 257 kts | 249° |
| 2026-04-24 17:07 | 12.14480 | 109.27764 | 2734 ft | 250 kts | 218° |
| 2026-04-24 17:07 | 12.11419 | 109.26245 | 2164 ft | 244 kts | 198° |
| 2026-04-24 17:08 | 12.08281 | 109.25174 | 1540 ft | 224 kts | 198° |
| 2026-04-24 17:08 | 12.06873 | 109.24682 | 1282 ft | 204 kts | 198° |
| 2026-04-24 17:08 | 12.05595 | 109.24239 | 1050 ft | 186 kts | 198° |
| 2026-04-24 17:09 | 12.03353 | 109.23469 | 667 ft | 150 kts | 198° |
| 2026-04-24 17:09 | 12.01545 | 109.22828 | 287 ft | 136 kts | 197° |
| 2026-04-24 17:10 | 12.00653 | 109.22520 | 68 ft | 133 kts | 198° |
| 2026-04-24 17:10 | 11.99279 | 109.22046 | 51 ft | 31 kts | 201° |
| 2026-04-24 17:11 | 11.98976 | 109.21915 | 51 ft | 4 kts | 272° |
| 2026-04-24 17:12 | 11.98986 | 109.21400 | 52 ft | 19 kts | 346° |